createdAt,value
2023-04-26T00:00:15.650Z,0.47
2023-04-26T00:01:15.725Z,0.64
2023-04-26T00:02:15.886Z,0.69
2023-04-26T00:03:15.954Z,0.62
2023-04-26T00:04:16.101Z,0.59
2023-04-26T00:05:16.162Z,0.60
2023-04-26T00:06:16.120Z,0.55
2023-04-26T00:07:16.214Z,0.67
2023-04-26T00:08:16.310Z,0.66
2023-04-26T00:09:16.369Z,0.45
2023-04-26T00:10:16.443Z,0.60
2023-04-26T00:11:16.521Z,0.72
2023-04-26T00:12:16.610Z,0.71
2023-04-26T00:13:16.715Z,0.50
2023-04-26T00:14:16.758Z,0.69
2023-04-26T00:15:16.856Z,0.40
2023-04-26T00:16:16.981Z,0.70
2023-04-26T00:17:17.006Z,0.58
2023-04-26T00:18:17.150Z,0.61
2023-04-26T00:19:17.172Z,0.85
2023-04-26T00:20:17.250Z,0.67
2023-04-26T00:21:17.342Z,0.70
2023-04-26T00:22:17.418Z,0.38
2023-04-26T00:23:17.500Z,0.50
2023-04-26T00:24:17.589Z,0.39
2023-04-26T00:25:17.678Z,0.90
2023-04-26T00:26:17.769Z,0.36
2023-04-26T00:27:17.843Z,0.71
2023-04-26T00:28:17.949Z,0.48
2023-04-26T00:29:18.008Z,0.66
2023-04-26T00:30:18.093Z,0.30
2023-04-26T00:31:18.212Z,0.59
2023-04-26T00:32:18.269Z,0.71
2023-04-26T00:33:18.345Z,0.83
2023-04-26T00:34:18.420Z,0.88
2023-04-26T00:35:18.502Z,0.66
2023-04-26T00:36:18.599Z,0.46
2023-04-26T00:37:18.664Z,0.65
2023-04-26T00:38:18.722Z,0.59
2023-04-26T00:39:18.743Z,0.60
2023-04-26T00:40:18.756Z,0.76
2023-04-26T00:41:18.778Z,0.57
2023-04-26T00:42:18.780Z,0.39
2023-04-26T00:43:18.811Z,0.63
2023-04-26T00:44:18.845Z,0.52
2023-04-26T00:45:18.833Z,0.87
2023-04-26T00:46:18.894Z,0.42
2023-04-26T00:47:18.881Z,0.73
2023-04-26T00:48:18.957Z,0.82
2023-04-26T00:49:19.048Z,0.75
2023-04-26T00:50:19.126Z,0.49
2023-04-26T00:51:19.208Z,0.74
2023-04-26T00:52:19.280Z,0.87
2023-04-26T00:53:19.376Z,0.69
2023-04-26T00:54:19.451Z,0.68
2023-04-26T00:55:19.535Z,0.68
2023-04-26T00:56:19.617Z,0.54
2023-04-26T00:57:19.690Z,0.50
2023-04-26T00:58:19.767Z,0.76
2023-04-26T00:59:19.841Z,0.52
2023-04-26T01:00:19.906Z,0.57
2023-04-26T01:01:20.060Z,0.59
2023-04-26T01:02:20.160Z,0.61
2023-04-26T01:03:20.267Z,0.64
2023-04-26T01:04:20.374Z,0.33
2023-04-26T01:05:20.269Z,0.52
2023-04-26T01:06:20.336Z,0.64
2023-04-26T01:07:20.395Z,0.68
2023-04-26T01:08:20.417Z,0.61
2023-04-26T01:09:20.433Z,0.54
2023-04-26T01:10:20.468Z,0.65
2023-04-26T01:11:20.462Z,1.02
2023-04-26T01:12:20.478Z,0.52
2023-04-26T01:13:20.491Z,0.47
2023-04-26T01:14:20.519Z,0.57
2023-04-26T01:15:20.523Z,0.56
2023-04-26T01:16:20.547Z,0.52
2023-04-26T01:17:20.645Z,0.53
2023-04-26T01:18:20.690Z,0.47
2023-04-26T01:19:20.760Z,0.56
2023-04-26T01:20:20.836Z,0.57
2023-04-26T01:21:20.925Z,0.65
2023-04-26T01:22:20.979Z,0.64
2023-04-26T01:23:21.055Z,0.54
2023-04-26T01:24:21.153Z,0.57
2023-04-26T01:25:21.217Z,0.64
2023-04-26T01:26:21.285Z,0.57
2023-04-26T01:27:21.375Z,0.81
2023-04-26T01:28:21.470Z,0.60
2023-04-26T01:29:21.584Z,0.61
2023-04-26T01:30:21.624Z,0.47
2023-04-26T01:31:21.736Z,0.54
2023-04-26T01:32:21.773Z,0.53
2023-04-26T01:33:21.868Z,0.46
2023-04-26T01:34:21.946Z,0.41
2023-04-26T01:35:22.031Z,0.38
2023-04-26T01:36:22.165Z,0.76
2023-04-26T01:37:22.161Z,0.64
2023-04-26T01:38:22.221Z,0.56
2023-04-26T01:39:22.316Z,0.56
2023-04-26T01:40:22.387Z,0.61
2023-04-26T01:41:22.448Z,0.56
2023-04-26T01:42:22.531Z,0.50
2023-04-26T01:43:22.606Z,0.39
2023-04-26T01:44:22.682Z,0.50
2023-04-26T01:45:22.733Z,0.59
2023-04-26T01:46:22.946Z,0.62
2023-04-26T01:47:22.922Z,0.68
2023-04-26T01:48:22.956Z,0.63
2023-04-26T01:49:23.032Z,0.59
2023-04-26T01:50:23.084Z,0.56
2023-04-26T01:51:23.157Z,0.46
2023-04-26T01:52:23.185Z,0.52
2023-04-26T01:53:23.192Z,0.43
2023-04-26T01:54:23.225Z,0.41
2023-04-26T01:55:23.258Z,0.66
2023-04-26T01:56:23.264Z,0.31
2023-04-26T01:57:23.286Z,0.66
2023-04-26T01:58:23.305Z,0.43
2023-04-26T01:59:23.339Z,0.64
2023-04-26T02:00:23.332Z,0.50
2023-04-26T02:01:23.368Z,0.44
2023-04-26T02:02:23.459Z,1.05
2023-04-26T02:03:23.570Z,0.47
2023-04-26T02:04:23.560Z,0.68
2023-04-26T02:05:23.702Z,0.50
2023-04-26T02:06:23.791Z,0.49
2023-04-26T02:07:23.765Z,0.38
2023-04-26T02:08:23.861Z,0.54
2023-04-26T02:09:23.905Z,0.57
2023-04-26T02:10:23.982Z,0.56
2023-04-26T02:11:24.052Z,0.41
2023-04-26T02:12:24.131Z,0.49
2023-04-26T02:13:24.197Z,0.50
2023-04-26T02:14:24.284Z,0.46
2023-04-26T02:15:24.355Z,0.46
2023-04-26T02:16:24.511Z,0.48
2023-04-26T02:17:24.495Z,0.56
2023-04-26T02:18:24.566Z,0.71
2023-04-26T02:19:24.616Z,1.00
2023-04-26T02:20:24.697Z,0.68
2023-04-26T02:21:24.756Z,0.85
2023-04-26T02:22:24.838Z,0.53
2023-04-26T02:23:24.918Z,0.51
2023-04-26T02:24:25.013Z,0.66
2023-04-26T02:25:25.063Z,0.52
2023-04-26T02:26:25.139Z,0.35
2023-04-26T02:27:25.206Z,0.49
2023-04-26T02:28:25.262Z,0.63
2023-04-26T02:29:42.119Z,0.54
2023-04-26T02:30:26.360Z,0.72
2023-04-26T02:31:25.387Z,0.56
2023-04-26T02:32:25.399Z,0.58
2023-04-26T02:33:25.405Z,0.46
2023-04-26T02:34:25.424Z,0.55
2023-04-26T02:35:25.433Z,0.69
2023-04-26T02:36:25.445Z,0.51
2023-04-26T02:37:25.465Z,0.45
2023-04-26T02:38:25.516Z,0.54
2023-04-26T02:39:25.586Z,0.67
2023-04-26T02:40:25.647Z,0.57
2023-04-26T02:41:25.699Z,0.67
2023-04-26T02:42:25.768Z,0.70
2023-04-26T02:43:25.838Z,0.54
2023-04-26T02:44:25.916Z,0.82
2023-04-26T02:45:25.982Z,0.58
2023-04-26T02:46:26.136Z,0.53
2023-04-26T02:47:26.152Z,0.43
2023-04-26T02:48:26.186Z,0.63
2023-04-26T02:49:26.279Z,0.57
2023-04-26T02:50:26.336Z,0.62
2023-04-26T02:51:26.406Z,0.57
2023-04-26T02:52:26.496Z,0.47
2023-04-26T02:53:26.566Z,0.64
2023-04-26T02:54:26.629Z,0.56
2023-04-26T02:55:26.703Z,0.55
2023-04-26T02:56:26.779Z,0.60
2023-04-26T02:57:26.880Z,0.85
2023-04-26T02:58:26.928Z,0.57
2023-04-26T02:59:27.002Z,0.49
2023-04-26T03:00:27.068Z,0.49
2023-04-26T03:01:27.194Z,0.61
2023-04-26T03:02:27.350Z,0.67
2023-04-26T03:03:27.590Z,0.64
2023-04-26T03:04:27.444Z,0.53
2023-04-26T03:05:27.501Z,0.41
2023-04-26T03:06:27.590Z,0.69
2023-04-26T03:07:27.690Z,0.49
2023-04-26T03:08:27.766Z,0.57
2023-04-26T03:09:27.862Z,0.46
2023-04-26T03:10:27.906Z,0.53
2023-04-26T03:11:27.979Z,0.52
2023-04-26T03:12:28.023Z,0.63
2023-04-26T03:13:28.113Z,0.43
2023-04-26T03:14:28.146Z,0.41
2023-04-26T03:15:28.202Z,0.42
2023-04-26T03:16:28.242Z,0.60
2023-04-26T03:17:28.227Z,0.66
2023-04-26T03:18:28.253Z,0.65
2023-04-26T03:19:28.379Z,0.75
2023-04-26T03:20:28.533Z,0.50
2023-04-26T03:21:28.641Z,0.56
2023-04-26T03:22:28.681Z,0.74
2023-04-26T03:23:28.717Z,0.55
2023-04-26T03:24:28.783Z,0.60
2023-04-26T03:25:28.797Z,0.72
2023-04-26T03:26:28.845Z,0.64
2023-04-26T03:27:28.938Z,0.46
2023-04-26T03:28:28.982Z,0.60
2023-04-26T03:29:29.034Z,0.62
2023-04-26T03:30:29.110Z,0.54
2023-04-26T03:31:29.147Z,0.42
2023-04-26T03:32:29.209Z,0.62
2023-04-26T03:33:29.243Z,0.36
2023-04-26T03:34:29.313Z,0.31
2023-04-26T03:35:29.371Z,0.86
2023-04-26T03:36:29.417Z,0.55
2023-04-26T03:37:29.472Z,0.69
2023-04-26T03:38:29.525Z,0.51
2023-04-26T03:39:29.589Z,0.35
2023-04-26T03:40:29.617Z,0.57
2023-04-26T03:41:29.630Z,0.34
2023-04-26T03:42:29.661Z,0.58
2023-04-26T03:43:29.687Z,0.29
2023-04-26T03:44:31.144Z,0.39
2023-04-26T03:45:29.814Z,0.67
2023-04-26T03:46:29.830Z,0.77
2023-04-26T03:47:29.825Z,0.29
2023-04-26T03:48:29.815Z,0.55
2023-04-26T03:49:29.868Z,0.46
2023-04-26T03:50:29.873Z,0.35
2023-04-26T03:51:29.910Z,0.29
2023-04-26T03:52:29.988Z,0.53
2023-04-26T03:53:30.057Z,0.29
2023-04-26T03:54:30.127Z,0.49
2023-04-26T03:55:30.198Z,0.31
2023-04-26T03:56:30.269Z,0.35
2023-04-26T03:57:30.350Z,0.40
2023-04-26T03:58:30.432Z,0.30
2023-04-26T03:59:30.509Z,0.47
2023-04-26T04:00:30.596Z,0.62
2023-04-26T04:01:30.782Z,0.56
2023-04-26T04:02:30.802Z,0.42
2023-04-26T04:03:30.961Z,0.38
2023-04-26T04:04:30.995Z,0.51
2023-04-26T04:05:31.058Z,0.39
2023-04-26T04:06:31.125Z,0.29
2023-04-26T04:07:31.179Z,0.48
2023-04-26T04:08:31.268Z,0.40
2023-04-26T04:09:31.379Z,0.43
2023-04-26T04:10:31.451Z,0.42
2023-04-26T04:11:31.553Z,0.28
2023-04-26T04:12:31.648Z,0.38
2023-04-26T04:13:31.790Z,0.45
2023-04-26T04:14:31.835Z,0.39
2023-04-26T04:15:31.963Z,0.44
2023-04-26T04:16:32.090Z,0.39
2023-04-26T04:17:32.129Z,0.42
2023-04-26T04:18:32.209Z,0.35
2023-04-26T04:19:32.319Z,0.40
2023-04-26T04:20:32.386Z,0.33
2023-04-26T04:21:32.462Z,0.46
2023-04-26T04:22:32.548Z,0.54
2023-04-26T04:23:32.610Z,0.38
2023-04-26T04:24:34.285Z,0.48
2023-04-26T04:25:32.794Z,0.75
2023-04-26T04:26:32.872Z,0.44
2023-04-26T04:27:32.924Z,0.35
2023-04-26T04:28:32.964Z,0.34
2023-04-26T04:29:33.025Z,0.66
2023-04-26T04:30:33.083Z,0.33
2023-04-26T04:31:33.190Z,0.78
2023-04-26T04:32:33.192Z,0.46
2023-04-26T04:33:33.182Z,0.53
2023-04-26T04:34:33.250Z,0.93
2023-04-26T04:35:33.294Z,0.94
2023-04-26T04:36:33.352Z,2.12
2023-04-26T04:37:33.403Z,2.96
2023-04-26T04:38:33.466Z,1.92
2023-04-26T04:39:33.518Z,2.43
2023-04-26T04:40:33.583Z,2.30
2023-04-26T04:41:33.641Z,1.73
2023-04-26T04:42:33.701Z,2.03
2023-04-26T04:43:33.751Z,2.14
2023-04-26T04:44:33.825Z,2.07
2023-04-26T04:45:33.881Z,1.86
2023-04-26T04:46:33.967Z,1.79
2023-04-26T04:47:34.088Z,2.05
2023-04-26T04:48:34.097Z,1.58
2023-04-26T04:49:34.133Z,1.92
2023-04-26T04:50:34.221Z,1.99
2023-04-26T04:51:34.262Z,2.09
2023-04-26T04:52:34.321Z,1.65
2023-04-26T04:53:34.388Z,2.15
2023-04-26T04:54:34.467Z,1.81
2023-04-26T04:55:34.523Z,1.66
2023-04-26T04:56:34.558Z,1.60
2023-04-26T04:57:34.591Z,1.95
2023-04-26T04:58:34.628Z,1.80
2023-04-26T04:59:34.656Z,1.64
2023-04-26T05:00:34.705Z,1.48
2023-04-26T05:01:34.759Z,1.64
2023-04-26T05:02:34.855Z,1.72
2023-04-26T05:03:34.908Z,1.74
2023-04-26T05:04:35.214Z,1.27
2023-04-26T05:05:34.885Z,1.27
2023-04-26T05:06:34.949Z,1.38
2023-04-26T05:07:34.973Z,1.42
2023-04-26T05:08:35.040Z,1.49
2023-04-26T05:09:35.073Z,1.64
2023-04-26T05:10:35.121Z,1.52
2023-04-26T05:11:35.168Z,1.66
2023-04-26T05:12:35.255Z,1.71
2023-04-26T05:13:35.346Z,1.31
2023-04-26T05:14:35.396Z,1.71
2023-04-26T05:15:35.447Z,1.90
2023-04-26T05:16:35.476Z,1.67
2023-04-26T05:17:35.572Z,1.25
2023-04-26T05:18:35.589Z,1.70
2023-04-26T05:19:35.648Z,1.56
2023-04-26T05:20:35.707Z,1.39
2023-04-26T05:21:35.783Z,1.39
2023-04-26T05:22:35.853Z,1.50
2023-04-26T05:23:35.916Z,1.45
2023-04-26T05:24:35.991Z,1.87
2023-04-26T05:25:36.081Z,1.03
2023-04-26T05:26:36.140Z,1.43
2023-04-26T05:27:36.242Z,1.56
2023-04-26T05:28:36.322Z,1.57
2023-04-26T05:29:36.428Z,1.34
2023-04-26T05:30:36.512Z,0.93
2023-04-26T05:31:36.636Z,1.35
2023-04-26T05:32:36.718Z,1.16
2023-04-26T05:33:36.781Z,1.44
2023-04-26T05:34:36.869Z,1.51
2023-04-26T05:35:36.931Z,2.59
2023-04-26T05:36:37.052Z,1.09
2023-04-26T05:37:37.195Z,1.29
2023-04-26T05:38:37.206Z,1.46
2023-04-26T05:39:37.220Z,1.77
2023-04-26T05:40:37.250Z,1.47
2023-04-26T05:41:37.252Z,2.49
2023-04-26T05:42:37.302Z,2.78
2023-04-26T05:43:37.287Z,2.47
2023-04-26T05:44:37.324Z,2.23
2023-04-26T05:45:37.390Z,3.24
2023-04-26T05:46:37.374Z,7.30
2023-04-26T05:47:37.455Z,7.54
2023-04-26T05:48:37.457Z,3.91
2023-04-26T05:49:37.471Z,3.60
2023-04-26T05:50:38.910Z,3.49
2023-04-26T05:51:37.630Z,2.63
2023-04-26T05:52:37.676Z,3.38
2023-04-26T05:53:37.718Z,2.19
2023-04-26T05:54:37.734Z,2.06
2023-04-26T05:55:37.787Z,2.02
2023-04-26T05:56:37.817Z,1.56
2023-04-26T05:57:38.018Z,1.77
2023-04-26T05:58:37.952Z,2.82
2023-04-26T05:59:38.026Z,2.44
2023-04-26T06:00:38.092Z,2.05
2023-04-26T06:01:38.159Z,3.30
2023-04-26T06:02:38.352Z,7.21
2023-04-26T06:03:38.439Z,6.68
2023-04-26T06:04:38.651Z,6.64
2023-04-26T06:05:38.492Z,6.06
2023-04-26T06:06:38.641Z,5.19
2023-04-26T06:07:38.614Z,3.82
2023-04-26T06:08:38.698Z,2.90
2023-04-26T06:09:38.800Z,2.81
2023-04-26T06:10:38.909Z,4.01
2023-04-26T06:11:38.961Z,3.31
2023-04-26T06:12:39.037Z,3.52
2023-04-26T06:13:39.141Z,2.82
2023-04-26T06:14:39.206Z,3.53
2023-04-26T06:15:39.286Z,2.78
2023-04-26T06:16:40.308Z,2.67
2023-04-26T06:17:39.467Z,2.00
2023-04-26T06:18:39.460Z,3.02
2023-04-26T06:19:39.481Z,2.88
2023-04-26T06:20:39.535Z,2.63
2023-04-26T06:21:39.535Z,2.04
2023-04-26T06:22:39.602Z,2.26
2023-04-26T06:23:39.608Z,2.57
2023-04-26T06:24:39.618Z,1.84
2023-04-26T06:25:39.673Z,1.48
2023-04-26T06:26:39.683Z,2.73
2023-04-26T06:27:39.716Z,2.71
2023-04-26T06:28:42.122Z,2.84
2023-04-26T06:29:39.925Z,2.15
2023-04-26T06:30:40.030Z,2.36
2023-04-26T06:31:40.005Z,2.83
2023-04-26T06:32:40.062Z,2.93
2023-04-26T06:33:40.101Z,4.70
2023-04-26T06:34:40.133Z,3.72
2023-04-26T06:35:40.222Z,3.60
2023-04-26T06:36:40.252Z,2.69
2023-04-26T06:37:40.314Z,2.63
2023-04-26T06:38:40.353Z,3.00
2023-04-26T06:39:40.399Z,2.32
2023-04-26T06:40:40.420Z,2.53
2023-04-26T06:41:40.496Z,2.82
2023-04-26T06:42:40.563Z,2.43
2023-04-26T06:43:40.669Z,2.96
2023-04-26T06:44:40.708Z,2.51
2023-04-26T06:45:42.165Z,2.06
2023-04-26T06:46:40.818Z,2.43
2023-04-26T06:47:40.791Z,2.26
2023-04-26T06:48:40.802Z,2.54
2023-04-26T06:49:40.912Z,2.48
2023-04-26T06:50:40.884Z,2.38
2023-04-26T06:51:40.911Z,2.32
2023-04-26T06:52:40.920Z,2.04
2023-04-26T06:53:40.950Z,2.05
2023-04-26T06:54:53.680Z,2.44
2023-04-26T06:55:42.011Z,1.62
2023-04-26T06:56:41.034Z,1.56
2023-04-26T06:57:41.058Z,1.77
2023-04-26T06:58:41.083Z,1.93
2023-04-26T06:59:41.121Z,1.86
2023-04-26T07:00:41.114Z,1.69
2023-04-26T07:01:41.189Z,1.66
2023-04-26T07:02:41.285Z,1.35
2023-04-26T07:03:41.335Z,1.65
2023-04-26T07:04:41.403Z,1.30
2023-04-26T07:05:41.330Z,1.19
2023-04-26T07:06:41.284Z,1.66
2023-04-26T07:07:41.299Z,0.91
2023-04-26T07:08:41.322Z,1.11
2023-04-26T07:09:41.355Z,1.04
2023-04-26T07:10:41.391Z,1.23
2023-04-26T07:11:41.418Z,1.34
2023-04-26T07:12:41.431Z,1.18
2023-04-26T07:13:41.553Z,0.79
2023-04-26T07:14:41.498Z,1.22
2023-04-26T07:15:41.581Z,1.24
2023-04-26T07:16:41.616Z,1.20
2023-04-26T07:17:41.590Z,0.98
2023-04-26T07:18:41.647Z,1.08
2023-04-26T07:19:41.702Z,0.89
2023-04-26T07:20:41.737Z,0.81
2023-04-26T07:21:41.768Z,0.55
2023-04-26T07:22:41.815Z,0.92
2023-04-26T07:23:41.828Z,0.98
2023-04-26T07:24:41.864Z,0.82
2023-04-26T07:25:41.872Z,0.90
2023-04-26T07:26:41.895Z,0.98
2023-04-26T07:27:41.931Z,0.80
2023-04-26T07:28:41.945Z,0.76
2023-04-26T07:29:42.107Z,0.95
2023-04-26T07:30:42.019Z,0.75
2023-04-26T07:31:42.056Z,0.48
2023-04-26T07:32:42.098Z,0.69
2023-04-26T07:33:42.112Z,0.77
2023-04-26T07:34:42.084Z,1.41
2023-04-26T07:35:42.113Z,0.63
2023-04-26T07:36:42.152Z,0.99
2023-04-26T07:37:42.177Z,1.12
2023-04-26T07:38:42.202Z,0.65
2023-04-26T07:39:42.255Z,0.95
2023-04-26T07:40:42.258Z,1.65
2023-04-26T07:41:43.864Z,1.03
2023-04-26T07:42:42.299Z,0.73
2023-04-26T07:43:42.304Z,0.81
2023-04-26T07:44:42.315Z,0.82
2023-04-26T07:45:42.394Z,1.01
2023-04-26T07:46:42.341Z,0.89
2023-04-26T07:47:42.363Z,0.80
2023-04-26T07:48:42.381Z,0.66
2023-04-26T07:49:42.386Z,0.83
2023-04-26T07:50:42.410Z,0.94
2023-04-26T07:51:42.487Z,0.73
2023-04-26T07:52:42.452Z,0.77
2023-04-26T07:53:42.529Z,0.95
2023-04-26T07:54:42.467Z,0.75
2023-04-26T07:55:42.494Z,0.72
2023-04-26T07:56:42.672Z,0.48
2023-04-26T07:57:42.522Z,0.83
2023-04-26T07:58:42.528Z,0.83
2023-04-26T07:59:42.566Z,0.92
2023-04-26T08:00:42.610Z,0.79
2023-04-26T08:01:42.617Z,0.75
2023-04-26T08:02:44.599Z,0.74
2023-04-26T08:03:42.845Z,0.84
2023-04-26T08:04:42.758Z,0.96
2023-04-26T08:05:42.975Z,0.66
2023-04-26T08:06:42.657Z,0.70
2023-04-26T08:07:42.711Z,0.81
2023-04-26T08:08:42.686Z,0.70
2023-04-26T08:09:42.713Z,1.77
2023-04-26T08:10:42.734Z,0.84
2023-04-26T08:11:42.763Z,0.88
2023-04-26T08:12:42.753Z,1.03
2023-04-26T08:13:42.762Z,0.97
2023-04-26T08:14:42.759Z,0.70
2023-04-26T08:15:42.769Z,1.65
2023-04-26T08:16:42.785Z,0.61
2023-04-26T08:17:42.824Z,0.76
2023-04-26T08:18:44.666Z,0.65
2023-04-26T08:19:42.805Z,0.53
2023-04-26T08:20:42.825Z,0.64
2023-04-26T08:21:42.842Z,0.83
2023-04-26T08:22:42.850Z,0.64
2023-04-26T08:23:42.875Z,0.76
2023-04-26T08:24:42.876Z,0.48
2023-04-26T08:25:42.952Z,0.90
2023-04-26T08:26:42.919Z,0.69
2023-04-26T08:27:42.929Z,0.50
2023-04-26T08:28:42.938Z,0.93
2023-04-26T08:29:42.957Z,0.59
2023-04-26T08:30:42.964Z,0.72
2023-04-26T08:31:43.005Z,0.58
2023-04-26T08:32:43.058Z,0.49
2023-04-26T08:33:43.093Z,0.67
2023-04-26T08:34:43.006Z,0.54
2023-04-26T08:35:43.034Z,0.67
2023-04-26T08:36:43.034Z,0.89
2023-04-26T08:37:43.063Z,0.69
2023-04-26T08:38:43.077Z,0.88
2023-04-26T08:39:43.107Z,0.73
2023-04-26T08:40:43.194Z,1.38
2023-04-26T08:41:43.293Z,0.55
2023-04-26T08:42:43.337Z,0.82
2023-04-26T08:43:43.400Z,0.73
2023-04-26T08:44:43.494Z,0.68
2023-04-26T08:45:43.489Z,1.07
2023-04-26T08:46:43.536Z,0.82
2023-04-26T08:47:43.523Z,1.21
2023-04-26T08:48:43.528Z,1.07
2023-04-26T08:49:43.536Z,0.92
2023-04-26T08:50:43.547Z,0.84
2023-04-26T08:51:43.607Z,1.01
2023-04-26T08:52:43.573Z,0.79
2023-04-26T08:53:43.630Z,0.93
2023-04-26T08:54:43.692Z,1.14
2023-04-26T08:55:43.763Z,1.27
2023-04-26T08:56:43.817Z,0.83
2023-04-26T08:57:43.900Z,0.97
2023-04-26T08:58:43.993Z,0.84
2023-04-26T08:59:44.063Z,1.03
2023-04-26T09:00:44.147Z,1.02
2023-04-26T09:01:44.245Z,1.01
2023-04-26T09:02:44.388Z,1.03
2023-04-26T09:03:45.374Z,0.94
2023-04-26T09:04:44.545Z,1.06
2023-04-26T09:05:44.617Z,0.66
2023-04-26T09:06:44.564Z,1.18
2023-04-26T09:07:44.636Z,0.92
2023-04-26T09:08:44.637Z,0.99
2023-04-26T09:09:44.660Z,0.94
2023-04-26T09:10:44.667Z,1.19
2023-04-26T09:11:44.670Z,0.85
2023-04-26T09:12:44.703Z,0.81
2023-04-26T09:13:44.709Z,0.81
2023-04-26T09:14:44.704Z,0.83
2023-04-26T09:15:44.777Z,0.84
2023-04-26T09:16:44.827Z,0.83
2023-04-26T09:17:44.759Z,1.09
2023-04-26T09:18:44.745Z,0.94
2023-04-26T09:19:44.755Z,0.97
2023-04-26T09:20:44.758Z,0.63
2023-04-26T09:21:44.788Z,0.68
2023-04-26T09:22:44.785Z,0.74
2023-04-26T09:23:44.818Z,1.26
2023-04-26T09:24:44.785Z,1.04
2023-04-26T09:25:44.842Z,1.13
2023-04-26T09:26:44.825Z,0.99
2023-04-26T09:27:44.894Z,0.90
2023-04-26T09:28:44.826Z,0.82
2023-04-26T09:29:44.827Z,0.67
2023-04-26T09:30:44.842Z,0.81
2023-04-26T09:31:47.012Z,0.89
2023-04-26T09:32:44.881Z,0.95
2023-04-26T09:33:44.874Z,0.85
2023-04-26T09:34:44.870Z,0.74
2023-04-26T09:35:44.885Z,0.66
2023-04-26T09:36:44.912Z,1.86
2023-04-26T09:37:57.585Z,0.99
2023-04-26T09:38:45.907Z,0.79
2023-04-26T09:39:44.927Z,0.68
2023-04-26T09:40:44.953Z,0.72
2023-04-26T09:41:44.969Z,1.03
2023-04-26T09:42:44.959Z,0.89
2023-04-26T09:43:44.958Z,1.09
2023-04-26T09:44:44.955Z,0.83
2023-04-26T09:45:44.980Z,0.83
2023-04-26T09:46:45.022Z,0.76
2023-04-26T09:47:45.021Z,0.89
2023-04-26T09:48:46.542Z,0.75
2023-04-26T09:49:45.001Z,0.86
2023-04-26T09:50:45.010Z,1.42
2023-04-26T09:51:45.016Z,0.95
2023-04-26T09:52:45.042Z,0.74
2023-04-26T09:53:45.041Z,0.73
2023-04-26T09:54:45.066Z,0.79
2023-04-26T09:55:45.390Z,0.80
2023-04-26T09:56:45.085Z,0.61
2023-04-26T09:57:45.117Z,0.87
2023-04-26T09:58:45.119Z,0.71
2023-04-26T09:59:45.135Z,0.87
2023-04-26T10:00:45.156Z,0.90
2023-04-26T10:01:45.169Z,0.94
2023-04-26T10:02:45.259Z,0.74
2023-04-26T10:03:45.468Z,0.97
2023-04-26T10:04:45.241Z,2.87
2023-04-26T10:05:45.318Z,0.60
2023-04-26T10:06:45.382Z,0.59
2023-04-26T10:07:45.509Z,0.51
2023-04-26T10:08:45.572Z,0.70
2023-04-26T10:09:45.620Z,0.95
2023-04-26T10:10:45.681Z,0.94
2023-04-26T10:11:45.756Z,0.66
2023-04-26T10:12:45.827Z,0.81
2023-04-26T10:13:45.896Z,0.73
2023-04-26T10:14:45.989Z,0.78
2023-04-26T10:15:46.077Z,0.50
2023-04-26T10:16:46.204Z,0.78
2023-04-26T10:17:46.241Z,0.57
2023-04-26T10:18:46.268Z,1.09
2023-04-26T10:19:46.342Z,0.64
2023-04-26T10:20:46.437Z,0.67
2023-04-26T10:21:46.484Z,1.09
2023-04-26T10:22:46.553Z,0.82
2023-04-26T10:23:46.619Z,0.53
2023-04-26T10:24:46.700Z,0.93
2023-04-26T10:25:46.766Z,0.79
2023-04-26T10:26:46.838Z,0.76
2023-04-26T10:27:46.901Z,0.62
2023-04-26T10:28:46.967Z,0.42
2023-04-26T10:29:47.039Z,0.53
2023-04-26T10:30:47.111Z,0.67
2023-04-26T10:31:47.204Z,0.89
2023-04-26T10:32:47.273Z,0.79
2023-04-26T10:33:47.290Z,0.65
2023-04-26T10:34:47.359Z,0.62
2023-04-26T10:35:47.419Z,0.66
2023-04-26T10:36:47.500Z,0.73
2023-04-26T10:37:47.497Z,0.47
2023-04-26T10:38:47.503Z,0.84
2023-04-26T10:39:47.506Z,0.97
2023-04-26T10:40:47.536Z,0.63
2023-04-26T10:41:47.509Z,0.68
2023-04-26T10:42:47.522Z,0.72
2023-04-26T10:43:47.546Z,0.67
2023-04-26T10:44:47.547Z,0.57
2023-04-26T10:45:47.567Z,0.67
2023-04-26T10:46:47.560Z,0.63
2023-04-26T10:47:47.661Z,0.46
2023-04-26T10:48:47.588Z,0.75
2023-04-26T10:49:47.658Z,0.70
2023-04-26T10:50:47.696Z,0.74
2023-04-26T10:51:47.794Z,0.58
2023-04-26T10:52:47.815Z,1.25
2023-04-26T10:53:47.868Z,0.92
2023-04-26T10:54:47.962Z,0.76
2023-04-26T10:55:48.010Z,0.81
2023-04-26T10:56:48.054Z,0.68
2023-04-26T10:57:48.178Z,0.73
2023-04-26T10:58:48.199Z,0.93
2023-04-26T10:59:54.648Z,0.49
2023-04-26T11:00:49.387Z,0.66
2023-04-26T11:01:48.494Z,0.89
2023-04-26T11:02:50.439Z,0.78
2023-04-26T11:03:48.637Z,1.12
2023-04-26T11:04:48.525Z,1.02
2023-04-26T11:05:48.473Z,0.71
2023-04-26T11:06:48.479Z,0.80
2023-04-26T11:07:48.468Z,0.62
2023-04-26T11:08:48.477Z,0.94
2023-04-26T11:09:48.497Z,0.76
2023-04-26T11:10:48.547Z,0.90
2023-04-26T11:11:48.503Z,0.67
2023-04-26T11:12:48.495Z,0.77
2023-04-26T11:13:48.502Z,0.36
2023-04-26T11:14:48.515Z,0.84
2023-04-26T11:15:49.943Z,0.57
2023-04-26T11:16:48.533Z,0.59
2023-04-26T11:17:48.591Z,0.89
2023-04-26T11:18:48.535Z,0.78
2023-04-26T11:19:48.548Z,0.58
2023-04-26T11:20:48.558Z,1.29
2023-04-26T11:21:48.587Z,0.71
2023-04-26T11:22:48.576Z,0.88
2023-04-26T11:23:48.565Z,0.65
2023-04-26T11:24:48.576Z,0.51
2023-04-26T11:25:48.589Z,0.43
2023-04-26T11:26:48.611Z,0.93
2023-04-26T11:27:48.580Z,0.93
2023-04-26T11:28:48.587Z,0.51
2023-04-26T11:29:48.587Z,0.71
2023-04-26T11:30:48.625Z,0.80
2023-04-26T11:31:48.713Z,0.89
2023-04-26T11:32:48.623Z,0.85
2023-04-26T11:33:50.557Z,0.69
2023-04-26T11:34:48.614Z,0.73
2023-04-26T11:35:48.645Z,0.62
2023-04-26T11:36:48.653Z,0.67
2023-04-26T11:37:48.689Z,0.89
2023-04-26T11:38:48.741Z,0.63
2023-04-26T11:39:48.805Z,0.60
2023-04-26T11:40:48.872Z,0.62
2023-04-26T11:41:48.932Z,0.71
2023-04-26T11:42:48.990Z,0.76
2023-04-26T11:43:49.028Z,0.76
2023-04-26T11:44:49.064Z,0.71
2023-04-26T11:45:49.123Z,0.65
2023-04-26T11:46:49.270Z,0.96
2023-04-26T11:47:49.238Z,0.65
2023-04-26T11:48:49.280Z,0.81
2023-04-26T11:49:49.305Z,0.73
2023-04-26T11:50:49.365Z,0.82
2023-04-26T11:51:49.381Z,0.82
2023-04-26T11:52:49.445Z,0.69
2023-04-26T11:53:49.443Z,0.89
2023-04-26T11:54:49.450Z,0.98
2023-04-26T11:55:49.447Z,0.74
2023-04-26T11:56:49.457Z,1.04
2023-04-26T11:57:49.467Z,0.78
2023-04-26T11:58:49.459Z,0.85
2023-04-26T11:59:49.472Z,1.01
2023-04-26T12:00:49.490Z,0.88
2023-04-26T12:01:49.578Z,0.88
2023-04-26T12:02:49.699Z,0.92
2023-04-26T12:03:49.681Z,0.84
2023-04-26T12:04:49.583Z,1.03
2023-04-26T12:05:49.535Z,0.86
2023-04-26T12:06:49.560Z,0.93
2023-04-26T12:07:49.551Z,0.97
2023-04-26T12:08:49.561Z,0.92
2023-04-26T12:09:49.573Z,0.78
2023-04-26T12:10:49.584Z,0.83
2023-04-26T12:11:49.582Z,0.71
2023-04-26T12:12:49.621Z,0.54
2023-04-26T12:13:49.656Z,0.72
2023-04-26T12:14:49.717Z,0.63
2023-04-26T12:15:49.726Z,0.79
2023-04-26T12:16:49.812Z,0.72
2023-04-26T12:17:49.821Z,0.84
2023-04-26T12:18:49.818Z,0.75
2023-04-26T12:19:49.848Z,0.58
2023-04-26T12:20:49.869Z,0.66
2023-04-26T12:21:49.903Z,1.04
2023-04-26T12:22:49.917Z,0.72
2023-04-26T12:23:49.949Z,0.78
2023-04-26T12:24:49.967Z,0.81
2023-04-26T12:25:50.000Z,0.72
2023-04-26T12:26:50.048Z,0.63
2023-04-26T12:27:50.056Z,0.89
2023-04-26T12:28:50.092Z,0.83
2023-04-26T12:29:50.106Z,0.66
2023-04-26T12:30:50.144Z,0.64
2023-04-26T12:31:50.254Z,0.76
2023-04-26T12:32:50.278Z,0.79
2023-04-26T12:33:50.238Z,1.16
2023-04-26T12:34:50.283Z,0.80
2023-04-26T12:35:50.304Z,0.75
2023-04-26T12:36:50.339Z,0.79
2023-04-26T12:37:51.622Z,0.65
2023-04-26T12:38:50.376Z,0.97
2023-04-26T12:39:50.380Z,0.67
2023-04-26T12:40:50.411Z,0.92
2023-04-26T12:41:50.438Z,0.64
2023-04-26T12:42:50.452Z,0.71
2023-04-26T12:43:50.459Z,0.79
2023-04-26T12:44:50.486Z,0.61
2023-04-26T12:45:50.575Z,0.91
2023-04-26T12:46:50.530Z,0.84
2023-04-26T12:47:50.587Z,0.82
2023-04-26T12:48:50.569Z,0.69
2023-04-26T12:49:50.602Z,0.62
2023-04-26T12:50:51.285Z,0.71
2023-04-26T12:51:50.644Z,1.04
2023-04-26T12:52:50.640Z,0.85
2023-04-26T12:53:50.685Z,0.50
2023-04-26T12:54:50.716Z,0.82
2023-04-26T12:55:50.723Z,0.97
2023-04-26T12:56:50.746Z,1.05
2023-04-26T12:57:50.780Z,0.38
2023-04-26T12:58:50.785Z,0.70
2023-04-26T12:59:50.819Z,0.63
2023-04-26T13:00:50.827Z,0.89
2023-04-26T13:01:51.009Z,0.77
2023-04-26T13:02:50.984Z,0.87
2023-04-26T13:03:51.066Z,0.50
2023-04-26T13:04:51.139Z,0.82
2023-04-26T13:05:50.950Z,0.89
2023-04-26T13:06:50.977Z,0.84
2023-04-26T13:07:50.991Z,1.18
2023-04-26T13:08:50.993Z,0.72
2023-04-26T13:09:51.008Z,0.58
2023-04-26T13:10:51.012Z,0.79
2023-04-26T13:11:51.046Z,0.53
2023-04-26T13:12:51.057Z,0.72
2023-04-26T13:13:51.095Z,0.87
2023-04-26T13:14:51.081Z,1.13
2023-04-26T13:15:51.130Z,1.08
2023-04-26T13:16:51.094Z,0.72
2023-04-26T13:17:51.198Z,0.66
2023-04-26T13:18:51.130Z,0.99